createdAt,value
2017-10-25T00:00:47.354Z,21.1
2017-10-25T00:01:55.442Z,21.1
2017-10-25T00:03:03.526Z,21.1
2017-10-25T00:04:11.628Z,21.1
2017-10-25T00:05:19.707Z,21.1
2017-10-25T00:06:27.797Z,21.1
2017-10-25T00:07:35.881Z,21.1
2017-10-25T00:08:43.966Z,21.1
2017-10-25T00:09:52.058Z,21.1
2017-10-25T00:11:00.145Z,21.0
2017-10-25T00:12:08.232Z,21.1
2017-10-25T00:13:16.318Z,21.0
2017-10-25T00:14:24.405Z,21.1
2017-10-25T00:15:32.490Z,21.1
2017-10-25T00:16:40.578Z,21.1
2017-10-25T00:17:48.665Z,21.1
2017-10-25T00:18:56.753Z,21.1
2017-10-25T00:20:04.838Z,21.1
2017-10-25T00:21:12.928Z,21.1
2017-10-25T00:22:21.017Z,21.0
2017-10-25T00:23:29.098Z,21.1
2017-10-25T00:24:37.185Z,21.1
2017-10-25T00:25:45.270Z,21.0
2017-10-25T00:26:53.361Z,21.1
2017-10-25T00:28:01.444Z,21.1
2017-10-25T00:29:09.527Z,21.1
2017-10-25T00:30:17.614Z,21.0
2017-10-25T00:31:25.704Z,21.0
2017-10-25T00:32:33.792Z,21.1
2017-10-25T00:33:41.875Z,21.0
2017-10-25T00:34:49.961Z,21.0
2017-10-25T00:35:58.049Z,21.0
2017-10-25T00:37:06.134Z,21.0
2017-10-25T00:38:14.238Z,21.1
2017-10-25T00:39:22.311Z,21.0
2017-10-25T00:40:30.395Z,21.0
2017-10-25T00:41:38.477Z,21.1
2017-10-25T00:42:46.564Z,21.0
2017-10-25T00:43:54.650Z,21.1
2017-10-25T00:45:02.739Z,21.1
2017-10-25T00:46:10.826Z,21.0
2017-10-25T00:47:18.953Z,21.0
2017-10-25T00:48:26.999Z,20.9
2017-10-25T00:49:35.382Z,20.9
2017-10-25T00:50:43.175Z,20.9
2017-10-25T00:51:51.258Z,21.0
2017-10-25T00:52:59.342Z,21.0
2017-10-25T00:54:07.430Z,20.9
2017-10-25T00:55:15.515Z,20.9
2017-10-25T00:56:23.607Z,20.9
2017-10-25T00:57:31.695Z,21.0
2017-10-25T00:58:39.773Z,20.9
2017-10-25T00:59:47.860Z,20.9
2017-10-25T01:00:55.949Z,21.0
2017-10-25T01:02:04.040Z,20.9
2017-10-25T01:03:12.118Z,20.9
2017-10-25T01:04:20.203Z,20.9
2017-10-25T01:05:28.290Z,20.9
2017-10-25T01:06:36.377Z,20.9
2017-10-25T01:07:44.462Z,20.9
2017-10-25T01:08:52.548Z,20.9
2017-10-25T01:10:00.636Z,20.9
2017-10-25T01:11:08.721Z,20.9
2017-10-25T01:12:16.809Z,20.9
2017-10-25T01:13:24.898Z,20.9
2017-10-25T01:14:32.984Z,20.9
2017-10-25T01:15:41.071Z,20.9
2017-10-25T01:16:49.153Z,20.9
2017-10-25T01:17:57.239Z,20.9
2017-10-25T01:19:05.326Z,20.7
2017-10-25T01:20:13.412Z,20.8
2017-10-25T01:21:21.503Z,20.8
2017-10-25T01:22:29.585Z,20.8
2017-10-25T01:23:37.671Z,20.8
2017-10-25T01:24:45.756Z,20.8
2017-10-25T01:25:53.852Z,20.9
2017-10-25T01:27:01.930Z,20.9
2017-10-25T01:28:10.017Z,20.9
2017-10-25T01:29:18.103Z,20.8
2017-10-25T01:30:26.205Z,20.8
2017-10-25T01:31:34.275Z,20.8
2017-10-25T01:32:42.360Z,20.8
2017-10-25T01:33:50.531Z,20.8
2017-10-25T01:34:58.551Z,20.7
2017-10-25T01:36:06.628Z,20.8
2017-10-25T01:37:14.715Z,20.7
2017-10-25T01:38:22.801Z,20.8
2017-10-25T01:39:30.887Z,20.8
2017-10-25T01:40:38.973Z,20.8
2017-10-25T01:41:47.064Z,20.7
2017-10-25T01:42:55.146Z,20.7
2017-10-25T01:44:03.233Z,20.7
2017-10-25T01:45:11.318Z,20.8
2017-10-25T01:46:19.406Z,20.7
2017-10-25T01:47:27.490Z,20.7
2017-10-25T01:48:35.587Z,20.7
2017-10-25T01:49:43.662Z,20.7
2017-10-25T01:50:51.747Z,20.7
2017-10-25T01:51:59.833Z,20.7
2017-10-25T01:53:07.920Z,20.7
2017-10-25T01:54:16.209Z,20.7
2017-10-25T01:55:24.093Z,20.7
2017-10-25T01:56:32.179Z,20.7
2017-10-25T01:57:40.266Z,20.7
2017-10-25T01:58:48.351Z,20.7
2017-10-25T01:59:56.453Z,20.7
2017-10-25T02:01:04.539Z,20.6
2017-10-25T02:02:12.618Z,20.6
2017-10-25T02:03:20.711Z,20.6
2017-10-25T02:04:28.799Z,20.6
2017-10-25T02:05:36.883Z,20.6
2017-10-25T02:06:44.967Z,20.6
2017-10-25T02:07:53.062Z,20.6
2017-10-25T02:09:01.141Z,20.6
2017-10-25T02:10:09.229Z,20.5
2017-10-25T02:11:17.313Z,20.5
2017-10-25T02:12:25.400Z,20.5
2017-10-25T02:13:33.504Z,20.6
2017-10-25T02:14:41.590Z,20.5
2017-10-25T02:15:49.677Z,20.5
2017-10-25T02:16:57.763Z,20.5
2017-10-25T02:18:05.860Z,20.5
2017-10-25T02:19:13.939Z,20.5
2017-10-25T02:20:22.023Z,20.5
2017-10-25T02:21:30.105Z,20.4
2017-10-25T02:22:38.189Z,20.4
2017-10-25T02:23:46.277Z,20.4
2017-10-25T02:24:54.360Z,20.4
2017-10-25T02:26:02.449Z,20.4
2017-10-25T02:27:10.538Z,20.4
2017-10-25T02:28:18.621Z,20.3
2017-10-25T02:29:26.706Z,20.5
2017-10-25T02:30:34.798Z,20.5
2017-10-25T02:31:42.876Z,20.5
2017-10-25T02:32:50.964Z,20.6
2017-10-25T02:33:59.050Z,20.5
2017-10-25T02:35:07.139Z,20.5
2017-10-25T02:36:15.243Z,20.4
2017-10-25T02:37:23.308Z,20.4
2017-10-25T02:38:31.392Z,20.3
2017-10-25T02:39:39.488Z,20.4
2017-10-25T02:40:47.573Z,20.4
2017-10-25T02:41:55.669Z,20.4
2017-10-25T02:43:03.755Z,20.4
2017-10-25T02:44:11.841Z,20.4
2017-10-25T02:45:19.930Z,20.4
2017-10-25T02:46:28.030Z,20.3
2017-10-25T02:47:36.097Z,20.3
2017-10-25T02:48:44.189Z,20.3
2017-10-25T02:49:52.277Z,20.3
2017-10-25T02:51:00.363Z,20.2
2017-10-25T02:52:08.452Z,20.3
2017-10-25T02:53:16.536Z,20.3
2017-10-25T02:54:24.620Z,20.3
2017-10-25T02:55:32.708Z,20.3
2017-10-25T02:56:40.796Z,20.3
2017-10-25T02:57:48.879Z,20.3
2017-10-25T02:58:56.969Z,20.3
2017-10-25T03:00:05.052Z,20.3
2017-10-25T03:01:13.137Z,20.3
2017-10-25T03:02:21.222Z,20.2
2017-10-25T03:03:29.306Z,20.2
2017-10-25T03:04:37.393Z,20.2
2017-10-25T03:05:45.478Z,20.2
2017-10-25T03:06:53.562Z,20.2
2017-10-25T03:08:01.657Z,20.2
2017-10-25T03:09:09.733Z,20.3
2017-10-25T03:10:17.819Z,20.2
2017-10-25T03:11:25.904Z,20.2
2017-10-25T03:12:33.987Z,20.1
2017-10-25T03:13:42.075Z,20.1
2017-10-25T03:14:50.159Z,20.2
2017-10-25T03:15:58.248Z,20.2
2017-10-25T03:17:06.357Z,20.2
2017-10-25T03:18:14.414Z,20.1
2017-10-25T03:19:22.500Z,20.1
2017-10-25T03:20:30.586Z,20.2
2017-10-25T03:21:38.671Z,20.1
2017-10-25T03:22:46.755Z,20.2
2017-10-25T03:23:54.858Z,20.1
2017-10-25T03:25:02.938Z,20.1
2017-10-25T03:26:11.023Z,20.1
2017-10-25T03:27:19.107Z,20.1
2017-10-25T03:28:27.194Z,20.1
2017-10-25T03:29:35.278Z,20.1
2017-10-25T03:30:43.365Z,20.1
2017-10-25T03:31:51.448Z,20.1
2017-10-25T03:32:59.537Z,20.1
2017-10-25T03:34:07.618Z,20.1
2017-10-25T03:35:15.704Z,20.1
2017-10-25T03:36:23.787Z,20.1
2017-10-25T03:37:31.873Z,20.0
2017-10-25T03:38:39.975Z,20.1
2017-10-25T03:39:48.064Z,20.0
2017-10-25T03:40:56.152Z,20.1
2017-10-25T03:42:04.238Z,20.0
2017-10-25T03:43:12.335Z,20.0
2017-10-25T03:44:20.425Z,20.0
2017-10-25T03:45:28.509Z,20.0
2017-10-25T03:46:36.592Z,19.9
2017-10-25T03:47:44.678Z,20.0
2017-10-25T03:48:52.764Z,19.9
2017-10-25T03:50:00.849Z,19.9
2017-10-25T03:51:08.935Z,20.0
2017-10-25T03:52:17.017Z,20.0
2017-10-25T03:53:25.105Z,19.9
2017-10-25T03:54:33.189Z,19.9
2017-10-25T03:55:41.278Z,19.9
2017-10-25T03:56:49.633Z,19.9
2017-10-25T03:57:57.718Z,19.9
2017-10-25T03:59:05.803Z,19.9
2017-10-25T04:00:13.887Z,19.9
2017-10-25T04:01:21.981Z,19.9
2017-10-25T04:02:30.122Z,19.8
2017-10-25T04:03:38.155Z,19.8
2017-10-25T04:04:46.238Z,19.9
2017-10-25T04:05:54.320Z,19.9
2017-10-25T04:07:02.406Z,19.8
2017-10-25T04:08:10.490Z,19.9
2017-10-25T04:09:18.577Z,19.7
2017-10-25T04:10:26.662Z,19.7
2017-10-25T04:11:34.753Z,19.7
2017-10-25T04:12:42.861Z,19.8
2017-10-25T04:13:50.942Z,19.8
2017-10-25T04:14:59.028Z,19.7
2017-10-25T04:16:07.113Z,19.7
2017-10-25T04:17:15.197Z,19.8
2017-10-25T04:18:23.285Z,19.8
2017-10-25T04:19:31.370Z,19.7
2017-10-25T04:20:39.454Z,19.7
2017-10-25T04:21:47.537Z,19.7
2017-10-25T04:22:55.620Z,19.7
2017-10-25T04:24:03.706Z,19.7
2017-10-25T04:25:11.792Z,19.8
2017-10-25T04:26:19.878Z,19.7
2017-10-25T04:27:27.965Z,19.7
2017-10-25T04:28:36.052Z,19.7
2017-10-25T04:29:44.135Z,19.7
2017-10-25T04:30:52.224Z,19.7
2017-10-25T04:32:00.305Z,19.7
2017-10-25T04:33:08.399Z,19.6
2017-10-25T04:34:16.475Z,19.7
2017-10-25T04:35:24.562Z,19.7
2017-10-25T04:36:33.190Z,19.7
2017-10-25T04:37:40.730Z,19.5
2017-10-25T04:38:48.814Z,19.7
2017-10-25T04:39:56.899Z,19.7
2017-10-25T04:41:05.138Z,19.7
2017-10-25T04:42:13.219Z,19.6
2017-10-25T04:43:21.310Z,19.6
2017-10-25T04:44:29.405Z,19.6
2017-10-25T04:45:37.490Z,19.7
2017-10-25T04:46:45.575Z,19.6
2017-10-25T04:47:53.660Z,19.6
2017-10-25T04:49:01.764Z,19.6
2017-10-25T04:50:09.828Z,19.6
2017-10-25T04:51:17.933Z,19.6
2017-10-25T04:52:25.999Z,19.5
2017-10-25T04:53:34.083Z,19.6
2017-10-25T04:54:42.167Z,19.6
2017-10-25T04:55:50.253Z,19.5
2017-10-25T04:56:58.514Z,19.6
2017-10-25T04:58:06.589Z,19.6
2017-10-25T04:59:14.675Z,19.6
2017-10-25T05:00:22.775Z,19.6
2017-10-25T05:01:31.524Z,19.6
2017-10-25T05:02:38.931Z,19.5
2017-10-25T05:03:47.558Z,19.6
2017-10-25T05:04:55.099Z,19.6
2017-10-25T05:06:03.183Z,19.5
2017-10-25T05:07:11.269Z,19.4
2017-10-25T05:08:19.355Z,19.5
2017-10-25T05:09:27.439Z,19.4
2017-10-25T05:10:35.522Z,19.4
2017-10-25T05:11:43.608Z,19.4
2017-10-25T05:12:51.712Z,19.4
2017-10-25T05:13:59.786Z,19.5
2017-10-25T05:15:07.873Z,19.5
2017-10-25T05:16:15.960Z,19.4
2017-10-25T05:17:24.048Z,19.4
2017-10-25T05:18:32.128Z,19.4
2017-10-25T05:19:40.215Z,19.5
2017-10-25T05:20:48.778Z,19.4
2017-10-25T05:21:56.896Z,19.4
2017-10-25T05:23:04.946Z,19.4
2017-10-25T05:24:13.028Z,19.4
2017-10-25T05:25:21.122Z,19.4
2017-10-25T05:26:29.213Z,19.4
2017-10-25T05:27:37.300Z,19.4
2017-10-25T05:28:45.392Z,19.4
2017-10-25T05:29:53.469Z,19.4
2017-10-25T05:31:01.556Z,19.4
2017-10-25T05:32:09.636Z,19.4
2017-10-25T05:33:17.720Z,19.3
2017-10-25T05:34:25.806Z,19.3
2017-10-25T05:35:33.894Z,19.4
2017-10-25T05:36:41.977Z,19.2
2017-10-25T05:37:50.061Z,19.3
2017-10-25T05:38:58.186Z,19.2
2017-10-25T05:40:06.308Z,19.3
2017-10-25T05:41:14.316Z,19.2
2017-10-25T05:42:22.399Z,19.2
2017-10-25T05:43:30.485Z,19.3
2017-10-25T05:44:38.568Z,19.2
2017-10-25T05:45:46.653Z,19.3
2017-10-25T05:46:54.747Z,19.2
2017-10-25T05:48:02.832Z,19.2
2017-10-25T05:49:10.917Z,19.3
2017-10-25T05:50:19.001Z,19.2
2017-10-25T05:51:27.087Z,19.2
2017-10-25T05:52:35.179Z,19.2
2017-10-25T05:53:43.264Z,19.3
2017-10-25T05:54:51.349Z,19.1
2017-10-25T05:55:59.435Z,19.1
2017-10-25T05:57:07.518Z,19.2
2017-10-25T05:58:15.603Z,19.1
2017-10-25T05:59:23.697Z,19.1
2017-10-25T06:00:31.772Z,19.1
2017-10-25T06:01:39.861Z,19.2
2017-10-25T06:02:47.947Z,19.1
2017-10-25T06:03:56.032Z,19.1
2017-10-25T06:05:04.116Z,19.1
2017-10-25T06:06:12.199Z,19.1
2017-10-25T06:07:20.406Z,19.1
2017-10-25T06:08:28.490Z,19.1
2017-10-25T06:09:36.569Z,19.1
2017-10-25T06:10:44.654Z,19.1
2017-10-25T06:11:52.739Z,19.1
2017-10-25T06:13:00.826Z,19.1
2017-10-25T06:14:08.910Z,19.1
2017-10-25T06:15:16.994Z,19.0
2017-10-25T06:16:25.080Z,19.1
2017-10-25T06:17:33.167Z,19.0
2017-10-25T06:18:41.247Z,19.1
2017-10-25T06:19:49.332Z,19.1
2017-10-25T06:20:57.416Z,19.1
2017-10-25T06:22:05.587Z,19.0
2017-10-25T06:23:13.675Z,19.0
2017-10-25T06:24:21.758Z,19.1
2017-10-25T06:25:29.841Z,19.0
2017-10-25T06:26:37.927Z,19.1
2017-10-25T06:27:46.009Z,19.0
2017-10-25T06:28:54.095Z,19.1
2017-10-25T06:30:02.179Z,19.0
2017-10-25T06:31:10.264Z,19.0
2017-10-25T06:32:18.347Z,18.9
2017-10-25T06:33:26.432Z,19.0
2017-10-25T06:34:34.516Z,18.9
2017-10-25T06:35:42.602Z,18.9
2017-10-25T06:36:50.692Z,18.9
2017-10-25T06:37:58.777Z,18.9
2017-10-25T06:39:06.856Z,19.0
2017-10-25T06:40:14.940Z,18.9
2017-10-25T06:41:23.025Z,18.9
2017-10-25T06:42:31.111Z,19.0
2017-10-25T06:43:39.218Z,18.9
2017-10-25T06:44:47.304Z,18.9
2017-10-25T06:45:55.390Z,18.9
2017-10-25T06:47:03.475Z,19.0
2017-10-25T06:48:11.562Z,19.0
2017-10-25T06:49:19.646Z,18.9
2017-10-25T06:50:27.728Z,18.9
2017-10-25T06:51:35.832Z,18.8
2017-10-25T06:52:43.899Z,18.9
2017-10-25T06:53:51.983Z,18.8
2017-10-25T06:55:00.074Z,18.8
2017-10-25T06:56:08.163Z,18.8
2017-10-25T06:57:16.246Z,18.9
2017-10-25T06:58:24.330Z,18.8
2017-10-25T06:59:32.413Z,18.8
2017-10-25T07:00:40.503Z,18.8
2017-10-25T07:01:48.580Z,18.8
2017-10-25T07:02:56.685Z,18.8
2017-10-25T07:04:04.751Z,18.8
2017-10-25T07:05:12.837Z,18.8
2017-10-25T07:06:20.936Z,18.9
2017-10-25T07:07:29.020Z,18.8
2017-10-25T07:08:37.103Z,18.8
2017-10-25T07:09:45.188Z,18.8
2017-10-25T07:10:53.273Z,18.8
2017-10-25T07:12:01.367Z,18.8
2017-10-25T07:13:09.449Z,18.8
2017-10-25T07:14:17.534Z,18.8
2017-10-25T07:15:25.618Z,18.7
2017-10-25T07:16:33.706Z,18.8
2017-10-25T07:17:41.785Z,18.8
2017-10-25T07:18:49.872Z,18.8
2017-10-25T07:19:57.963Z,18.8
2017-10-25T07:21:06.042Z,18.7
2017-10-25T07:22:14.126Z,18.7
2017-10-25T07:23:22.220Z,18.8
2017-10-25T07:24:30.309Z,18.7
2017-10-25T07:25:38.387Z,18.7
2017-10-25T07:26:46.473Z,18.7
2017-10-25T07:27:54.576Z,18.7
2017-10-25T07:29:02.644Z,18.7
2017-10-25T07:30:10.726Z,18.7
2017-10-25T07:31:18.821Z,18.7
2017-10-25T07:32:26.915Z,18.7
2017-10-25T07:33:35.013Z,18.7
2017-10-25T07:34:43.094Z,18.7
2017-10-25T07:35:51.233Z,18.7
2017-10-25T07:36:59.320Z,18.7
2017-10-25T07:38:07.421Z,18.7
2017-10-25T07:39:15.515Z,18.7
2017-10-25T07:40:23.600Z,18.7
2017-10-25T07:41:31.686Z,18.8
2017-10-25T07:42:39.771Z,18.7
2017-10-25T07:43:47.854Z,18.7
2017-10-25T07:44:55.938Z,18.7
2017-10-25T07:46:04.021Z,18.6
2017-10-25T07:47:12.107Z,18.7
2017-10-25T07:48:20.190Z,18.7
2017-10-25T07:49:28.276Z,18.6
2017-10-25T07:50:36.359Z,18.6
2017-10-25T07:51:44.467Z,18.7
2017-10-25T07:52:52.528Z,18.6
2017-10-25T07:54:00.613Z,18.7
2017-10-25T07:55:08.697Z,18.6
2017-10-25T07:56:16.780Z,18.7
2017-10-25T07:57:24.865Z,18.7
2017-10-25T07:58:32.950Z,18.6
2017-10-25T07:59:41.035Z,18.5
2017-10-25T08:00:49.120Z,18.6
2017-10-25T08:01:57.209Z,18.6
2017-10-25T08:03:05.292Z,18.6
2017-10-25T08:04:13.373Z,18.6
2017-10-25T08:05:21.457Z,18.6
2017-10-25T08:06:29.541Z,18.6
2017-10-25T08:07:37.625Z,18.6
2017-10-25T08:08:45.709Z,18.6
2017-10-25T08:09:53.794Z,18.6
2017-10-25T08:11:01.879Z,18.5
2017-10-25T08:12:09.964Z,18.6
2017-10-25T08:13:18.053Z,18.5
2017-10-25T08:14:26.130Z,18.6
2017-10-25T08:15:34.280Z,18.5
2017-10-25T08:16:42.319Z,18.6
2017-10-25T08:17:50.403Z,18.5
2017-10-25T08:18:58.487Z,18.5
2017-10-25T08:20:06.573Z,18.5
2017-10-25T08:21:14.658Z,18.5
2017-10-25T08:22:22.752Z,18.6
2017-10-25T08:23:30.821Z,18.5
2017-10-25T08:24:38.914Z,18.5
2017-10-25T08:25:47.000Z,18.5
2017-10-25T08:26:55.084Z,18.5
2017-10-25T08:28:03.179Z,18.6
2017-10-25T08:29:11.265Z,18.5
2017-10-25T08:30:19.349Z,18.4
2017-10-25T08:31:27.439Z,18.5
2017-10-25T08:32:35.517Z,18.5
2017-10-25T08:33:43.603Z,18.5
2017-10-25T08:34:51.689Z,18.4
2017-10-25T08:35:59.770Z,18.5
2017-10-25T08:37:07.855Z,18.6
2017-10-25T08:38:15.940Z,18.5
2017-10-25T08:39:24.035Z,18.4
2017-10-25T08:40:32.119Z,18.5
2017-10-25T08:41:40.214Z,18.4
2017-10-25T08:42:48.298Z,18.5
2017-10-25T08:43:56.384Z,18.5
2017-10-25T08:45:04.487Z,18.5
2017-10-25T08:46:12.563Z,18.5
2017-10-25T08:47:20.645Z,18.5
2017-10-25T08:48:28.734Z,18.5
2017-10-25T08:49:36.821Z,18.4
2017-10-25T08:50:44.913Z,18.5
2017-10-25T08:51:52.998Z,18.5
2017-10-25T08:53:01.086Z,18.5
2017-10-25T08:54:09.166Z,18.5
2017-10-25T08:55:17.252Z,18.4
2017-10-25T08:56:25.335Z,18.4
2017-10-25T08:57:33.419Z,18.5
2017-10-25T08:58:41.503Z,18.4
2017-10-25T08:59:49.588Z,18.4
2017-10-25T09:00:57.671Z,18.5
2017-10-25T09:02:05.843Z,18.5
2017-10-25T09:03:13.845Z,18.5
2017-10-25T09:04:21.929Z,18.4
2017-10-25T09:05:30.011Z,18.5
2017-10-25T09:06:38.092Z,18.5
2017-10-25T09:07:46.175Z,18.4
2017-10-25T09:08:54.261Z,18.5
2017-10-25T09:10:02.348Z,18.4
2017-10-25T09:11:10.439Z,18.5
2017-10-25T09:12:18.520Z,18.4
2017-10-25T09:13:26.600Z,18.4
2017-10-25T09:14:34.682Z,18.5
2017-10-25T09:15:42.778Z,18.5
2017-10-25T09:16:50.851Z,18.5
2017-10-25T09:17:58.936Z,18.4
2017-10-25T09:19:07.021Z,18.4
2017-10-25T09:20:15.106Z,18.5
2017-10-25T09:21:23.190Z,18.5
2017-10-25T09:22:31.275Z,18.5
2017-10-25T09:23:39.360Z,18.4
2017-10-25T09:24:47.464Z,18.5
2017-10-25T09:25:55.548Z,18.4
2017-10-25T09:27:03.635Z,18.5
2017-10-25T09:28:11.718Z,18.4
2017-10-25T09:29:19.803Z,18.4
2017-10-25T09:30:27.887Z,18.5
2017-10-25T09:31:35.965Z,18.5
2017-10-25T09:32:44.059Z,18.5
2017-10-25T09:33:52.145Z,18.5
2017-10-25T09:35:00.234Z,18.5
2017-10-25T09:36:08.320Z,18.5
2017-10-25T09:37:16.403Z,18.5
2017-10-25T09:38:24.488Z,18.6
2017-10-25T09:39:32.572Z,18.5
2017-10-25T09:40:40.655Z,18.5
2017-10-25T09:41:48.740Z,18.5
2017-10-25T09:42:56.828Z,18.5
2017-10-25T09:44:04.917Z,18.5
2017-10-25T09:45:12.997Z,18.5
2017-10-25T09:46:21.080Z,18.5
2017-10-25T09:47:29.170Z,18.6
2017-10-25T09:48:37.253Z,18.5
2017-10-25T09:49:45.334Z,18.6
2017-10-25T09:50:53.417Z,18.5
2017-10-25T09:52:01.500Z,18.4
2017-10-25T09:53:09.609Z,18.5
2017-10-25T09:54:17.671Z,18.5
2017-10-25T09:55:25.755Z,18.6
2017-10-25T09:56:33.841Z,18.5
2017-10-25T09:57:41.924Z,18.5
2017-10-25T09:58:50.012Z,18.5
2017-10-25T09:59:58.093Z,18.5
2017-10-25T10:01:06.177Z,18.5
2017-10-25T10:02:14.263Z,18.4
2017-10-25T10:03:22.347Z,18.5
2017-10-25T10:04:30.451Z,18.5
2017-10-25T10:05:38.544Z,18.4
2017-10-25T10:06:46.623Z,18.5
2017-10-25T10:07:54.704Z,18.5
2017-10-25T10:09:02.795Z,18.5
2017-10-25T10:10:10.881Z,18.5
2017-10-25T10:11:18.964Z,18.5
2017-10-25T10:12:27.053Z,18.4
2017-10-25T10:13:35.132Z,18.5
2017-10-25T10:14:43.218Z,18.5
2017-10-25T10:15:51.322Z,18.5
2017-10-25T10:16:59.407Z,18.5
2017-10-25T10:18:07.489Z,18.5
2017-10-25T10:19:15.584Z,18.5
2017-10-25T10:20:23.658Z,18.5
2017-10-25T10:21:31.742Z,18.5
2017-10-25T10:22:39.829Z,18.5
2017-10-25T10:23:47.912Z,18.5
2017-10-25T10:24:55.997Z,18.5
2017-10-25T10:26:04.081Z,18.4
2017-10-25T10:27:12.173Z,18.5
2017-10-25T10:28:20.251Z,18.5
2017-10-25T10:29:28.332Z,18.5
2017-10-25T10:30:36.417Z,18.5
2017-10-25T10:31:44.501Z,18.5
2017-10-25T10:32:52.591Z,18.5
2017-10-25T10:34:00.671Z,18.5
2017-10-25T10:35:08.759Z,18.5
2017-10-25T10:36:16.841Z,18.5
2017-10-25T10:37:24.925Z,18.5
2017-10-25T10:38:33.012Z,18.6
2017-10-25T10:39:41.103Z,18.6
2017-10-25T10:40:49.191Z,18.5
2017-10-25T10:41:57.281Z,18.5
2017-10-25T10:43:05.361Z,18.5
2017-10-25T10:44:13.444Z,18.6
2017-10-25T10:45:21.525Z,18.6
2017-10-25T10:46:29.608Z,18.5
2017-10-25T10:47:37.692Z,18.5
2017-10-25T10:48:45.779Z,18.6
2017-10-25T10:49:53.861Z,18.5
2017-10-25T10:51:01.947Z,18.5
2017-10-25T10:52:10.034Z,18.5
2017-10-25T10:53:18.205Z,18.5
2017-10-25T10:54:26.204Z,18.5
2017-10-25T10:55:34.285Z,18.6
2017-10-25T10:56:42.368Z,18.6
2017-10-25T10:57:50.454Z,18.5
2017-10-25T10:58:58.595Z,18.6
2017-10-25T11:00:06.645Z,18.6
2017-10-25T11:01:14.711Z,18.6
2017-10-25T11:02:22.797Z,18.6
2017-10-25T11:03:30.881Z,18.5
2017-10-25T11:04:38.964Z,18.5
2017-10-25T11:05:47.049Z,18.6
2017-10-25T11:06:55.134Z,18.5
2017-10-25T11:08:03.218Z,18.5
2017-10-25T11:09:11.305Z,18.6
2017-10-25T11:10:19.461Z,18.6
2017-10-25T11:11:27.546Z,18.5
2017-10-25T11:12:35.635Z,18.6
2017-10-25T11:13:43.722Z,18.6
2017-10-25T11:14:51.795Z,18.6
2017-10-25T11:15:59.880Z,18.6
2017-10-25T11:17:07.973Z,18.5
2017-10-25T11:18:16.048Z,18.6
2017-10-25T11:19:24.136Z,18.6
2017-10-25T11:20:32.221Z,18.6
2017-10-25T11:21:40.306Z,18.6
2017-10-25T11:22:48.389Z,18.6
2017-10-25T11:23:56.477Z,18.5
2017-10-25T11:25:04.559Z,18.6
2017-10-25T11:26:12.643Z,18.6
2017-10-25T11:27:20.727Z,18.6
2017-10-25T11:28:28.816Z,18.5
2017-10-25T11:29:36.897Z,18.6
2017-10-25T11:30:44.995Z,18.6
2017-10-25T11:31:53.067Z,18.6
2017-10-25T11:33:01.152Z,18.6
2017-10-25T11:34:09.236Z,18.6
2017-10-25T11:35:17.320Z,18.6
2017-10-25T11:36:25.441Z,18.6
2017-10-25T11:37:33.487Z,18.6
2017-10-25T11:38:41.573Z,18.6
2017-10-25T11:39:49.657Z,18.6
2017-10-25T11:40:57.742Z,18.6
2017-10-25T11:42:05.826Z,18.6
2017-10-25T11:43:13.912Z,18.6
2017-10-25T11:44:21.996Z,18.6
2017-10-25T11:45:30.081Z,18.6
2017-10-25T11:46:38.165Z,18.6
2017-10-25T11:47:46.261Z,18.6
2017-10-25T11:48:54.346Z,18.6
2017-10-25T11:50:02.435Z,18.6
2017-10-25T11:51:10.520Z,18.6
2017-10-25T11:52:18.600Z,18.6
2017-10-25T11:53:26.685Z,18.6
2017-10-25T11:54:34.770Z,18.6
2017-10-25T11:55:42.853Z,18.5
2017-10-25T11:56:50.942Z,18.6
2017-10-25T11:57:59.029Z,18.7
2017-10-25T11:59:07.114Z,18.7
2017-10-25T12:00:15.194Z,18.7
2017-10-25T12:01:23.283Z,18.6
2017-10-25T12:02:31.363Z,18.7
2017-10-25T12:03:39.446Z,18.6
2017-10-25T12:04:47.532Z,18.6
2017-10-25T12:05:55.616Z,18.7
2017-10-25T12:07:03.702Z,18.6
2017-10-25T12:08:11.794Z,18.6
2017-10-25T12:09:19.869Z,18.6
2017-10-25T12:10:27.974Z,18.7
2017-10-25T12:11:36.049Z,18.7
2017-10-25T12:12:44.128Z,18.6
2017-10-25T12:13:52.221Z,18.6
2017-10-25T12:15:00.300Z,18.7
2017-10-25T12:16:08.581Z,18.6
2017-10-25T12:17:16.665Z,18.6
2017-10-25T12:18:24.751Z,18.6
2017-10-25T12:19:32.842Z,18.6
2017-10-25T12:20:40.971Z,18.6
2017-10-25T12:21:49.007Z,18.7
2017-10-25T12:22:57.101Z,18.6
2017-10-25T12:24:05.189Z,18.6
2017-10-25T12:25:13.274Z,18.6
2017-10-25T12:26:21.347Z,18.6
2017-10-25T12:27:29.586Z,18.6
2017-10-25T12:28:37.673Z,18.6
2017-10-25T12:29:45.764Z,18.7
2017-10-25T12:30:53.840Z,18.7
2017-10-25T12:32:01.927Z,18.7
2017-10-25T12:33:10.012Z,18.7
2017-10-25T12:34:18.095Z,18.7
2017-10-25T12:35:26.182Z,18.7
2017-10-25T12:36:34.265Z,18.7
2017-10-25T12:37:42.357Z,18.7
2017-10-25T12:38:50.432Z,18.7
2017-10-25T12:39:58.519Z,18.7
2017-10-25T12:41:06.607Z,18.7
2017-10-25T12:42:14.694Z,18.6
2017-10-25T12:43:22.782Z,18.7
2017-10-25T12:44:30.860Z,18.6
2017-10-25T12:45:38.946Z,18.6
2017-10-25T12:46:47.030Z,18.7
2017-10-25T12:47:55.115Z,18.7
2017-10-25T12:49:03.209Z,18.7
2017-10-25T12:50:11.294Z,18.7
2017-10-25T12:51:19.380Z,18.7
2017-10-25T12:52:27.462Z,18.7
2017-10-25T12:53:35.545Z,18.7
2017-10-25T12:54:43.633Z,18.7
2017-10-25T12:55:51.718Z,18.8
2017-10-25T12:56:59.801Z,18.7
2017-10-25T12:58:07.890Z,18.7
2017-10-25T12:59:15.983Z,18.7
2017-10-25T13:00:24.058Z,18.7
2017-10-25T13:01:32.145Z,18.7
2017-10-25T13:02:40.244Z,18.7
2017-10-25T13:03:48.317Z,18.7
2017-10-25T13:04:56.399Z,18.7
2017-10-25T13:06:04.483Z,18.8
2017-10-25T13:07:12.572Z,18.7
2017-10-25T13:08:20.652Z,18.7
2017-10-25T13:09:28.738Z,18.7
2017-10-25T13:10:36.823Z,18.7
2017-10-25T13:11:44.907Z,18.7
2017-10-25T13:12:52.998Z,18.7
2017-10-25T13:14:01.076Z,18.7
2017-10-25T13:15:09.158Z,18.7
2017-10-25T13:16:17.245Z,18.7
2017-10-25T13:17:25.330Z,18.7
2017-10-25T13:18:33.417Z,18.7
2017-10-25T13:19:41.501Z,18.7
2017-10-25T13:20:49.585Z,18.7
2017-10-25T13:21:57.670Z,18.7
2017-10-25T13:23:05.755Z,18.7
2017-10-25T13:24:13.839Z,18.7
2017-10-25T13:25:21.921Z,18.6
2017-10-25T13:26:30.007Z,18.7
2017-10-25T13:27:38.097Z,18.7
2017-10-25T13:28:46.178Z,18.7
2017-10-25T13:29:54.305Z,18.7
2017-10-25T13:31:02.351Z,18.7
2017-10-25T13:32:10.436Z,18.7
2017-10-25T13:33:18.517Z,18.7
2017-10-25T13:34:26.598Z,18.8
2017-10-25T13:35:34.683Z,18.7
2017-10-25T13:36:42.767Z,18.7
2017-10-25T13:37:50.853Z,18.7
2017-10-25T13:38:58.938Z,18.7
2017-10-25T13:40:07.023Z,18.7
2017-10-25T13:41:15.106Z,18.7
2017-10-25T13:42:23.193Z,18.7
2017-10-25T13:43:31.277Z,18.7
2017-10-25T13:44:39.360Z,18.7
2017-10-25T13:45:47.443Z,18.8
2017-10-25T13:46:55.528Z,18.7
2017-10-25T13:48:03.614Z,18.8
2017-10-25T13:49:11.699Z,18.7
2017-10-25T13:50:19.790Z,18.7
2017-10-25T13:51:27.885Z,18.7
2017-10-25T13:52:35.952Z,18.7
2017-10-25T13:53:44.038Z,18.7
2017-10-25T13:54:52.119Z,18.7
2017-10-25T13:56:00.206Z,18.7
2017-10-25T13:57:09.119Z,18.7
2017-10-25T13:58:17.205Z,18.7
2017-10-25T13:59:25.301Z,18.8
2017-10-25T14:00:33.371Z,18.7
2017-10-25T14:01:41.458Z,18.7
2017-10-25T14:02:49.545Z,18.7
2017-10-25T14:03:57.625Z,18.8
2017-10-25T14:05:05.717Z,18.7
2017-10-25T14:06:13.793Z,18.7
2017-10-25T14:07:21.879Z,18.8
2017-10-25T14:08:30.229Z,18.7
2017-10-25T14:09:38.052Z,18.7
2017-10-25T14:10:46.132Z,18.7
2017-10-25T14:11:54.215Z,18.7
2017-10-25T14:13:02.301Z,18.7
2017-10-25T14:14:10.385Z,18.7
2017-10-25T14:15:18.471Z,18.7
2017-10-25T14:16:26.555Z,18.7
2017-10-25T14:17:34.639Z,18.7
2017-10-25T14:18:42.723Z,18.7
2017-10-25T14:19:50.808Z,18.8
2017-10-25T14:20:58.895Z,18.7
2017-10-25T14:22:06.978Z,18.7
2017-10-25T14:23:15.063Z,18.7
2017-10-25T14:24:23.157Z,18.7
2017-10-25T14:25:31.241Z,18.7
2017-10-25T14:26:39.326Z,18.7
2017-10-25T14:27:47.413Z,18.7
2017-10-25T14:28:55.495Z,18.7
2017-10-25T14:30:03.580Z,18.8
2017-10-25T14:31:11.663Z,18.7
2017-10-25T14:32:19.747Z,18.7
2017-10-25T14:33:27.835Z,18.7
2017-10-25T14:34:35.918Z,18.7
2017-10-25T14:35:44.002Z,18.7
2017-10-25T14:36:52.087Z,18.7
2017-10-25T14:38:00.171Z,18.8
2017-10-25T14:39:08.254Z,18.7
2017-10-25T14:40:16.338Z,18.7
2017-10-25T14:41:24.424Z,18.7
2017-10-25T14:42:32.509Z,18.7
2017-10-25T14:43:40.666Z,18.7
2017-10-25T14:44:48.678Z,18.7
2017-10-25T14:45:56.763Z,18.7
2017-10-25T14:47:04.846Z,18.7
2017-10-25T14:48:12.930Z,18.7
2017-10-25T14:49:21.033Z,18.7
2017-10-25T14:50:29.099Z,18.7
2017-10-25T14:51:37.184Z,18.7
2017-10-25T14:52:45.267Z,18.7
2017-10-25T14:53:53.353Z,18.7
2017-10-25T14:55:01.437Z,18.7
2017-10-25T14:56:09.521Z,18.7
2017-10-25T14:57:17.603Z,18.7
2017-10-25T14:58:25.688Z,18.7
2017-10-25T14:59:33.772Z,18.7
2017-10-25T15:00:41.858Z,18.7
2017-10-25T15:01:49.944Z,18.7
2017-10-25T15:02:58.028Z,18.7
2017-10-25T15:04:06.111Z,18.7
2017-10-25T15:05:14.198Z,18.6
2017-10-25T15:06:22.281Z,18.7